Barney, ND (58008)

1:26 AM CDT on March 28, 2017 (GMT -0500)
Between the fields | | Change Station
Active Advisory: Dense Fog Advisory

Elev 1047 ft 46.25 °N, 97.12 °W | Updated 20 seconds ago

Partly Cloudy
Partly Cloudy
36.7 °F
Feels Like 34 °F
N
4.0
Wind Variable Wind from NE

Today
High -- | Low -- °F
--% Chance of Precip.
Yesterday
High -- | Low -- °F
Precip. -- in
Pressure 30.06 in
Visibility 3.0 miles
Clouds Clear
Windchill 34 °F
Dew Point 33 °F
Humidity 88%
Rainfall 0.00 in
Snow Depth Not available.
7:14 AM 7:51 PM
New Moon, 0% visible
METAR KBWP 280615Z AUTO 01004KT 3SM CLR 03/02 A3006 RMK AO1
Pressure 30.06 in
Visibility 3.0 miles
Clouds Clear
Windchill 34 °F
Dew Point 33 °F
Humidity 88%
Rainfall 0.00 in
Snow Depth Not available.
7:14 AM 7:51 PM
New Moon, 0% visible
METAR KBWP 280615Z AUTO 01004KT 3SM CLR 03/02 A3006 RMK AO1

Get Your Daily Forecast Email!

Thanks for signing up!

Be on the lookout for a verification email in your inbox.

You'll start receiving severe weather alerts in your inbox..

×

10-Day Weather Forecast

Almanac

Astronomy

Mar. 28, 2017 Rise Set
Actual Time
Civil Twilight
Nautical Twilight
Astronomical Twilight
Moon
Length of Visible Light
Length of Day
Tomorrow will be .
, % of the Moon is Illuminated

Today's Extremes

State Highs State Lows

Community

WunderPhotos

Upload Photos

1,962,540 photos uploaded!

WunderBlog® & News

Nearby

Air Quality

  Air Quality AQ Index Pollutant
Not available.

Snow Depth

Station Depth Elevation

Earthquake Activity

City Distance Mag. Time & Date
Minimum magnitude displayed is 2.5.

Earthquake Activity

City Distance Mag. Time & Date
Minimum magnitude displayed is 2.5.

Coastal Water Temperatures

Place Temperature

Stations

Nearby Weather Stations

Station Location Temp. Windchill Dew Point Humidity Wind Precip. Elev Updated Type
                   

Watches & Warnings

Dense Fog Advisory
Issued: 1:08 AM CDT Mar. 28, 2017 – National Weather Service

... Dense fog advisory in effect until 10 am CDT this morning...

The National Weather Service in Grand Forks has issued a dense
fog advisory... which is in effect until 10 am CDT this morning.

* Visibilities... less than one quarter mile.

* Impacts... limited visibilities will make travel very difficult.

Precautionary/preparedness actions...

A dense fog advisory means visibilities will frequently be
reduced to less than one quarter mile. If driving, slow down, use
your headlights, and leave plenty of distance ahead of you.